EDDB/SXF METAR and TAF weather

Enter ICAO airport designator
Station Type Date Time Source
EDDB METAR 2021/09/16 20:50 UTC NOAA

EDDB 162050Z 25008KT 9999 FEW038 16/13 Q1013 NOSIG


Station Type Date Time Source
EDDB Decoded METAR 2021/09/16 20:50 UTC NOAA

Berlin-Schoenefeld, Germany (EDDB) 52-23N 013-31E 50M
Sep 16, 2021 - 04:50 PM EDT / 2021.09.16 2050 UTC
Wind: from the WSW (250 degrees) at 9 MPH (8 KT):0
Visibility: greater than 7 mile(s):0
Sky conditions: mostly clear
Temperature: 60 F (16 C)
Dew Point: 55 F (13 C)
Relative Humidity: 82%
Pressure (altimeter): 29.91 in. Hg (1013 hPa)
ob: EDDB 162050Z 25008KT 9999 FEW038 16/13 Q1013 NOSIG
cycle: 21

Station Type Date Time Source
EDDB TAF 2021/09/16 18:27 UTC NOAA

TAF TAF EDDB 161700Z 1618/1718 26008KT 9999 SCT025
TEMPO 1701/1708 FEW008 BKN013
BECMG 1708/1710 29013KT
BECMG 1716/1718 29008KT

Example: see airport list